createdAt,value
2023-01-03T00:02:14.696Z,7.39
2023-01-03T00:04:45.856Z,7.27
2023-01-03T00:07:15.567Z,7.15
2023-01-03T00:09:42.115Z,7.02
2023-01-03T00:12:30.158Z,6.84
2023-01-03T00:14:57.694Z,6.82
2023-01-03T00:17:24.858Z,7.01
2023-01-03T00:19:51.481Z,7.01
2023-01-03T00:22:18.453Z,6.63
2023-01-03T00:24:46.373Z,6.84
2023-01-03T00:27:14.443Z,6.37
2023-01-03T00:29:42.219Z,6.23
2023-01-03T00:32:09.730Z,6.57
2023-01-03T00:34:36.597Z,6.28
2023-01-03T00:37:03.294Z,6.56
2023-01-03T00:39:29.841Z,6.68
2023-01-03T00:41:56.697Z,6.67
2023-01-03T00:44:23.377Z,6.52
2023-01-03T00:46:49.925Z,6.25
2023-01-03T00:49:16.590Z,6.29
2023-01-03T00:51:43.868Z,6.02
2023-01-03T00:54:12.943Z,6.05
2023-01-03T00:56:42.163Z,5.65
2023-01-03T00:59:10.281Z,5.85
2023-01-03T01:01:47.257Z,5.41
2023-01-03T01:04:18.835Z,5.55
2023-01-03T01:06:48.337Z,5.53
2023-01-03T01:09:19.350Z,5.45
2023-01-03T01:11:46.950Z,5.49
2023-01-03T01:14:20.482Z,4.97
2023-01-03T01:17:08.161Z,5.25
2023-01-03T01:19:37.714Z,5.44
2023-01-03T01:22:05.079Z,4.97
2023-01-03T01:24:32.080Z,5.11
2023-01-03T01:26:59.079Z,5.02
2023-01-03T01:29:25.927Z,5.07
2023-01-03T01:31:52.764Z,5.09
2023-01-03T01:34:19.516Z,5.08
2023-01-03T01:36:47.067Z,5.13
2023-01-03T01:39:19.693Z,4.94
2023-01-03T01:42:06.404Z,5.07
2023-01-03T01:44:52.783Z,5.04
2023-01-03T01:47:55.181Z,5.10
2023-01-03T01:50:29.393Z,5.27
2023-01-03T01:53:01.884Z,5.23
2023-01-03T01:55:58.002Z,4.92
2023-01-03T01:58:28.695Z,5.44
2023-01-03T02:00:55.758Z,5.33
2023-01-03T02:03:22.422Z,5.48
2023-01-03T02:05:53.653Z,5.46
2023-01-03T02:08:20.770Z,5.50
2023-01-03T02:11:17.120Z,5.55
2023-01-03T02:14:11.324Z,5.28
2023-01-03T02:17:11.793Z,5.47
2023-01-03T02:19:59.657Z,5.42
2023-01-03T02:22:55.101Z,5.43
2023-01-03T02:25:27.742Z,5.41
2023-01-03T02:27:54.126Z,5.39
2023-01-03T02:30:33.755Z,5.36
2023-01-03T02:33:09.374Z,5.33
2023-01-03T02:35:53.096Z,5.08
2023-01-03T02:38:49.300Z,5.13
2023-01-03T02:41:33.197Z,4.98
2023-01-03T02:44:13.255Z,4.78
2023-01-03T02:46:44.558Z,4.76
2023-01-03T02:49:25.007Z,4.17
2023-01-03T02:52:00.194Z,4.31
2023-01-03T02:55:11.690Z,4.36
2023-01-03T02:58:00.535Z,4.28
2023-01-03T03:00:30.710Z,3.99
2023-01-03T03:03:03.378Z,3.92
2023-01-03T03:05:42.360Z,3.50
2023-01-03T03:08:08.891Z,3.37
2023-01-03T03:10:54.441Z,3.61
2023-01-03T03:13:36.125Z,3.67
2023-01-03T03:16:12.886Z,3.47
2023-01-03T03:18:45.332Z,3.51
2023-01-03T03:21:33.943Z,2.78
2023-01-03T03:24:27.964Z,3.22
2023-01-03T03:26:58.499Z,3.28
2023-01-03T03:29:26.244Z,3.08
2023-01-03T03:31:54.903Z,3.09
2023-01-03T03:34:31.348Z,3.02
2023-01-03T03:37:14.817Z,2.84
2023-01-03T03:39:59.819Z,2.85
2023-01-03T03:42:57.334Z,3.07
2023-01-03T03:45:53.192Z,3.06
2023-01-03T03:48:24.288Z,3.03
2023-01-03T03:51:08.289Z,2.89
2023-01-03T03:53:38.265Z,2.50
2023-01-03T03:56:12.814Z,2.77
2023-01-03T03:58:41.966Z,2.87
2023-01-03T04:01:12.083Z,2.70
2023-01-03T04:03:42.222Z,2.73
2023-01-03T04:06:18.835Z,2.93
2023-01-03T04:08:45.537Z,2.19
2023-01-03T04:11:12.238Z,2.70
2023-01-03T04:13:39.344Z,2.83
2023-01-03T04:16:07.524Z,2.82
2023-01-03T04:18:34.196Z,2.69
2023-01-03T04:21:00.808Z,2.77
2023-01-03T04:23:27.452Z,2.74
2023-01-03T04:25:54.011Z,2.61
2023-01-03T04:28:20.576Z,2.55
2023-01-03T04:30:47.426Z,2.33
2023-01-03T04:33:14.060Z,2.44
2023-01-03T04:35:40.783Z,2.32
2023-01-03T04:38:07.913Z,2.41
2023-01-03T04:40:35.293Z,2.08
2023-01-03T04:43:20.529Z,2.18
2023-01-03T04:45:51.755Z,2.35
2023-01-03T04:48:18.444Z,2.29
2023-01-03T04:50:59.606Z,2.21
2023-01-03T04:53:27.615Z,2.32
2023-01-03T04:55:56.754Z,2.30
2023-01-03T04:58:23.756Z,2.17
2023-01-03T05:00:50.273Z,2.15
2023-01-03T05:03:21.421Z,2.04
2023-01-03T05:06:00.937Z,2.26
2023-01-03T05:08:27.549Z,2.30
2023-01-03T05:10:54.338Z,2.08
2023-01-03T05:13:20.941Z,2.30
2023-01-03T05:15:47.758Z,2.25
2023-01-03T05:18:15.654Z,1.90
2023-01-03T05:21:00.774Z,2.23
2023-01-03T05:23:45.918Z,2.48
2023-01-03T05:26:18.747Z,2.76
2023-01-03T05:28:49.382Z,2.70
2023-01-03T05:31:16.014Z,2.83
2023-01-03T05:33:42.644Z,3.10
2023-01-03T05:36:10.143Z,2.70
2023-01-03T05:38:37.786Z,2.82
2023-01-03T05:41:04.732Z,3.23
2023-01-03T05:43:31.338Z,3.52
2023-01-03T05:45:57.962Z,3.07
2023-01-03T05:48:24.663Z,3.60
2023-01-03T05:50:52.153Z,3.04
2023-01-03T05:53:18.637Z,3.85
2023-01-03T05:55:45.106Z,3.92
2023-01-03T05:58:12.662Z,4.06
2023-01-03T06:00:39.566Z,4.17
2023-01-03T06:03:06.713Z,4.10
2023-01-03T06:05:33.437Z,4.30
2023-01-03T06:08:02.036Z,3.79
2023-01-03T06:10:29.165Z,4.19
2023-01-03T06:12:55.893Z,4.15
2023-01-03T06:15:22.535Z,4.24
2023-01-03T06:17:55.140Z,4.12
2023-01-03T06:20:21.630Z,4.38
2023-01-03T06:22:48.318Z,4.12
2023-01-03T06:25:15.224Z,4.09
2023-01-03T06:27:41.833Z,4.13
2023-01-03T06:30:09.483Z,3.97
2023-01-03T06:32:36.057Z,3.93
2023-01-03T06:35:02.642Z,3.81
2023-01-03T06:37:29.146Z,3.82
2023-01-03T06:39:55.719Z,3.72
2023-01-03T06:42:41.031Z,3.78
2023-01-03T06:45:27.144Z,3.16
2023-01-03T06:48:12.366Z,3.73
2023-01-03T06:50:59.541Z,3.87
2023-01-03T06:53:29.075Z,3.83
2023-01-03T06:55:57.312Z,3.81
2023-01-03T06:58:24.607Z,3.42
2023-01-03T07:00:51.205Z,3.87
2023-01-03T07:03:17.765Z,4.08
2023-01-03T07:05:44.264Z,4.11
2023-01-03T07:08:10.979Z,4.30
2023-01-03T07:10:37.511Z,4.22
2023-01-03T07:13:22.439Z,4.22
2023-01-03T07:15:49.641Z,4.30
2023-01-03T07:18:16.325Z,4.54
2023-01-03T07:20:45.729Z,4.56
2023-01-03T07:23:13.377Z,4.53
2023-01-03T07:25:41.722Z,4.64
2023-01-03T07:28:13.421Z,4.83
2023-01-03T07:30:42.346Z,4.50
2023-01-03T07:33:11.120Z,4.89
2023-01-03T07:35:37.898Z,4.97
2023-01-03T07:38:08.067Z,4.93
2023-01-03T07:40:34.661Z,4.95
2023-01-03T07:43:19.830Z,4.95
2023-01-03T07:45:46.956Z,4.99
2023-01-03T07:48:14.247Z,4.52
2023-01-03T07:50:41.662Z,4.90
2023-01-03T07:53:08.984Z,5.10
2023-01-03T07:55:37.324Z,4.61
2023-01-03T07:58:04.435Z,5.21
2023-01-03T08:00:31.006Z,5.17
2023-01-03T08:02:57.706Z,5.29
2023-01-03T08:05:25.627Z,5.32
2023-01-03T08:07:53.075Z,5.31
2023-01-03T08:10:39.254Z,4.72
2023-01-03T08:13:18.294Z,5.14
2023-01-03T08:15:53.702Z,5.39
2023-01-03T08:18:22.767Z,5.41
2023-01-03T08:20:49.681Z,5.50
2023-01-03T08:23:16.184Z,5.65
2023-01-03T08:25:42.720Z,5.63
2023-01-03T08:28:10.703Z,5.42
2023-01-03T08:30:46.954Z,5.67
2023-01-03T08:33:15.563Z,5.79
2023-01-03T08:35:48.636Z,5.79
2023-01-03T08:38:18.998Z,5.90
2023-01-03T08:40:47.643Z,5.81
2023-01-03T08:43:15.760Z,5.98
2023-01-03T08:45:42.423Z,5.61
2023-01-03T08:48:10.387Z,6.06
2023-01-03T08:50:37.555Z,6.11
2023-01-03T08:53:05.754Z,6.06
2023-01-03T08:55:33.707Z,6.32
2023-01-03T08:58:00.395Z,6.19
2023-01-03T09:00:28.737Z,6.43
2023-01-03T09:03:00.166Z,6.49
2023-01-03T09:05:28.152Z,6.73
2023-01-03T09:07:55.295Z,6.44
2023-01-03T09:10:23.016Z,6.85
2023-01-03T09:12:49.875Z,7.11
2023-01-03T09:15:16.628Z,6.63
2023-01-03T09:17:45.119Z,6.86
2023-01-03T09:20:13.249Z,7.31
2023-01-03T09:22:40.126Z,7.36
2023-01-03T09:25:07.926Z,7.26
2023-01-03T09:27:34.914Z,7.09
2023-01-03T09:30:01.912Z,7.39
2023-01-03T09:32:28.493Z,7.40
2023-01-03T09:34:55.039Z,7.56
2023-01-03T09:37:21.524Z,7.71
2023-01-03T09:39:48.031Z,7.78
2023-01-03T09:42:39.190Z,7.92
2023-01-03T09:45:07.997Z,7.97
2023-01-03T09:47:37.961Z,7.91
2023-01-03T09:53:12.310Z,7.63
2023-01-03T09:56:14.215Z,8.05
2023-01-03T09:59:01.044Z,7.99
2023-01-03T10:01:52.297Z,8.12
2023-01-03T10:04:56.574Z,8.13
2023-01-03T10:07:33.720Z,8.14
2023-01-03T10:10:15.501Z,8.18
2023-01-03T10:12:58.889Z,8.23
2023-01-03T10:15:51.281Z,8.29
2023-01-03T10:18:26.848Z,8.27
2023-01-03T10:21:01.659Z,8.34
2023-01-03T10:23:30.350Z,8.26
2023-01-03T10:25:57.819Z,8.44
2023-01-03T10:28:33.363Z,7.83
2023-01-03T10:31:12.728Z,8.44
2023-01-03T10:33:48.015Z,8.43
2023-01-03T10:36:16.598Z,8.43
2023-01-03T10:38:51.970Z,8.20
2023-01-03T10:41:39.259Z,8.12
2023-01-03T10:44:05.895Z,8.60
2023-01-03T10:46:32.690Z,8.69
2023-01-03T10:49:33.227Z,8.36
2023-01-03T10:52:24.476Z,8.85
2023-01-03T10:54:58.628Z,8.60
2023-01-03T10:57:39.784Z,8.89
2023-01-03T11:00:43.171Z,8.93
2023-01-03T11:03:11.973Z,8.95
2023-01-03T11:05:41.216Z,8.66
2023-01-03T11:08:34.923Z,8.76
2023-01-03T11:11:01.514Z,9.04
2023-01-03T11:13:41.380Z,8.92
2023-01-03T11:16:16.833Z,9.04
2023-01-03T11:18:58.175Z,9.21
2023-01-03T11:21:39.866Z,9.24
2023-01-03T11:24:24.452Z,9.30
2023-01-03T11:27:09.842Z,9.50
2023-01-03T11:30:10.207Z,9.57
2023-01-03T11:33:14.469Z,9.49
2023-01-03T11:36:10.099Z,9.51
2023-01-03T11:39:03.153Z,9.64
2023-01-03T11:41:35.657Z,9.73
2023-01-03T11:44:39.432Z,8.87
2023-01-03T11:47:39.525Z,9.97
2023-01-03T11:50:08.671Z,10.24
2023-01-03T11:52:50.708Z,10.15
2023-01-03T11:55:36.889Z,10.27
2023-01-03T11:58:22.643Z,10.18
2023-01-03T12:01:05.834Z,10.05
2023-01-03T12:03:45.935Z,10.02
2023-01-03T12:06:29.018Z,9.99
2023-01-03T12:09:04.676Z,9.92
2023-01-03T12:12:07.584Z,9.92
2023-01-03T12:14:47.079Z,9.35
2023-01-03T12:17:26.703Z,9.67
2023-01-03T12:20:00.229Z,9.68
2023-01-03T12:22:37.404Z,9.19
2023-01-03T12:25:27.800Z,9.63
2023-01-03T12:28:03.399Z,9.51
2023-01-03T12:30:41.384Z,9.63
2023-01-03T12:33:31.064Z,9.19
2023-01-03T12:36:01.436Z,9.63
2023-01-03T12:38:32.236Z,9.48
2023-01-03T12:41:09.593Z,9.65
2023-01-03T12:43:46.751Z,9.27
2023-01-03T12:46:18.551Z,9.69
2023-01-03T12:48:51.491Z,9.81
2023-01-03T12:51:22.061Z,9.39
2023-01-03T12:53:51.852Z,9.80
2023-01-03T12:56:46.204Z,9.86
2023-01-03T12:59:39.077Z,9.94
2023-01-03T13:02:47.177Z,10.25
2023-01-03T13:05:39.839Z,10.73
2023-01-03T13:08:06.466Z,11.03
2023-01-03T13:10:40.128Z,10.67
2023-01-03T13:13:07.419Z,10.82
2023-01-03T13:15:37.347Z,10.75
2023-01-03T13:18:23.288Z,10.57
2023-01-03T13:20:51.330Z,10.54
2023-01-03T13:23:32.073Z,10.10
2023-01-03T13:26:07.782Z,10.29
2023-01-03T13:28:38.928Z,10.36
2023-01-03T13:31:14.749Z,10.34
2023-01-03T13:33:56.015Z,10.27
2023-01-03T13:36:24.360Z,10.36
2023-01-03T13:38:51.564Z,10.19
2023-01-03T13:41:38.900Z,10.15
2023-01-03T13:44:17.819Z,9.93
2023-01-03T13:46:44.557Z,10.22
2023-01-03T13:49:19.544Z,9.98
2023-01-03T13:51:55.285Z,10.14
2023-01-03T13:54:21.823Z,10.18
2023-01-03T13:56:48.277Z,10.20
2023-01-03T13:59:14.794Z,10.24
2023-01-03T14:01:44.388Z,10.41
2023-01-03T14:04:17.107Z,10.57
2023-01-03T14:07:21.183Z,10.64
2023-01-03T14:09:56.697Z,10.75
2023-01-03T14:12:54.189Z,10.66
2023-01-03T14:15:26.776Z,10.56
2023-01-03T14:18:11.516Z,10.14
2023-01-03T14:20:41.856Z,9.85
2023-01-03T14:23:57.221Z,10.30
2023-01-03T14:26:12.565Z,10.03
2023-01-03T14:28:39.978Z,10.06
2023-01-03T14:31:16.234Z,9.93
2023-01-03T14:33:48.471Z,9.69
2023-01-03T14:36:16.893Z,9.67
2023-01-03T14:38:51.838Z,9.65
2023-01-03T14:42:08.917Z,9.43
2023-01-03T14:44:35.580Z,9.12
2023-01-03T14:47:06.445Z,9.13
2023-01-03T14:49:45.660Z,9.04
2023-01-03T14:52:27.414Z,8.87
2023-01-03T14:55:03.495Z,8.60
2023-01-03T14:57:30.939Z,8.60
2023-01-03T15:00:00.708Z,8.65
2023-01-03T15:02:31.261Z,8.73
2023-01-03T15:05:01.172Z,8.31
2023-01-03T15:07:39.448Z,8.81
2023-01-03T15:10:15.165Z,8.46
2023-01-03T15:12:50.691Z,8.61
2023-01-03T15:15:24.011Z,8.65
2023-01-03T15:17:55.325Z,8.58
2023-01-03T15:20:30.991Z,8.59
2023-01-03T15:22:57.557Z,8.52
2023-01-03T15:25:43.187Z,8.00
2023-01-03T15:28:35.161Z,8.48
2023-01-03T15:31:26.616Z,8.33
2023-01-03T15:34:13.264Z,8.19
2023-01-03T15:36:41.234Z,8.21
2023-01-03T15:39:10.342Z,7.97
2023-01-03T15:42:20.037Z,7.90
2023-01-03T15:44:45.923Z,7.96
2023-01-03T15:47:19.023Z,7.68
2023-01-03T15:49:50.183Z,7.77
2023-01-03T15:52:17.150Z,7.75
2023-01-03T15:54:44.981Z,7.29
2023-01-03T15:57:20.790Z,7.74
2023-01-03T15:59:55.004Z,7.72
2023-01-03T16:02:24.600Z,7.67
2023-01-03T16:04:53.083Z,7.67
2023-01-03T16:07:20.069Z,7.62
2023-01-03T16:09:47.015Z,7.22
2023-01-03T16:12:17.852Z,7.65
2023-01-03T16:14:48.521Z,7.67
2023-01-03T16:17:33.216Z,7.66
2023-01-03T16:20:01.261Z,7.62
2023-01-03T16:22:35.133Z,7.51
2023-01-03T16:25:03.415Z,7.54
2023-01-03T16:27:30.078Z,7.59
2023-01-03T16:29:56.600Z,7.63
2023-01-03T16:32:28.605Z,7.63
2023-01-03T16:35:04.632Z,6.93
2023-01-03T16:37:33.357Z,7.49
2023-01-03T16:39:59.939Z,7.50
2023-01-03T16:42:27.976Z,7.61
2023-01-03T16:44:54.789Z,7.66
2023-01-03T16:47:32.831Z,7.65
2023-01-03T16:50:12.960Z,7.65
2023-01-03T16:52:43.209Z,7.71
2023-01-03T16:55:32.123Z,7.38
2023-01-03T16:57:59.063Z,7.74
2023-01-03T17:00:31.528Z,7.68
2023-01-03T17:03:00.104Z,7.99
2023-01-03T17:05:37.976Z,7.89
2023-01-03T17:08:08.219Z,8.13
2023-01-03T17:10:38.780Z,7.70
2023-01-03T17:13:12.158Z,7.80
2023-01-03T17:15:39.698Z,8.19
2023-01-03T17:18:06.254Z,8.20
2023-01-03T17:20:32.798Z,7.86
2023-01-03T17:23:00.368Z,8.38
2023-01-03T17:25:27.154Z,8.18
2023-01-03T17:27:57.777Z,8.30
2023-01-03T17:30:28.039Z,8.25
2023-01-03T17:33:11.841Z,8.46
2023-01-03T17:35:39.470Z,8.44
2023-01-03T17:38:25.388Z,8.14
2023-01-03T17:40:55.096Z,8.29
2023-01-03T17:43:23.723Z,8.29
2023-01-03T17:46:20.606Z,8.06
2023-01-03T17:49:11.154Z,8.05
2023-01-03T17:51:37.726Z,8.14
2023-01-03T17:54:04.458Z,8.20
2023-01-03T17:56:31.058Z,8.25
2023-01-03T17:58:57.598Z,8.21
2023-01-03T18:01:24.481Z,8.18
2023-01-03T18:03:51.395Z,7.99
2023-01-03T18:06:20.970Z,8.12
2023-01-03T18:08:48.360Z,8.14
2023-01-03T18:11:17.896Z,8.29
2023-01-03T18:13:47.211Z,7.91
2023-01-03T18:16:19.678Z,8.18
2023-01-03T18:18:47.131Z,8.20
2023-01-03T18:21:21.556Z,7.70
2023-01-03T18:23:58.734Z,8.39
2023-01-03T18:26:33.330Z,7.93
2023-01-03T18:29:00.402Z,8.45
2023-01-03T18:31:26.947Z,8.00
2023-01-03T18:33:53.638Z,8.41
2023-01-03T18:36:32.889Z,7.98
2023-01-03T18:39:03.643Z,8.39
2023-01-03T18:41:33.118Z,8.27
2023-01-03T18:44:00.420Z,8.20
2023-01-03T18:46:28.331Z,7.95
2023-01-03T18:48:55.007Z,8.31
2023-01-03T18:51:27.986Z,8.31
2023-01-03T18:53:58.400Z,7.89
2023-01-03T18:56:37.778Z,7.88
2023-01-03T18:59:13.109Z,8.47
2023-01-03T19:01:39.780Z,7.92
2023-01-03T19:04:06.536Z,8.38
2023-01-03T19:06:34.153Z,8.30
2023-01-03T19:09:04.860Z,8.46
2023-01-03T19:11:35.976Z,8.39
2023-01-03T19:14:03.951Z,8.01
2023-01-03T19:16:36.787Z,8.40
2023-01-03T19:19:04.803Z,8.20
2023-01-03T19:21:34.722Z,8.23
2023-01-03T19:24:12.091Z,8.41
2023-01-03T19:26:50.775Z,8.39
2023-01-03T19:29:23.996Z,8.29
2023-01-03T19:31:53.591Z,8.41
2023-01-03T19:34:25.519Z,7.51
2023-01-03T19:36:52.887Z,8.33
2023-01-03T19:39:25.120Z,7.90
2023-01-03T19:42:14.665Z,8.36
2023-01-03T19:44:42.357Z,7.79
2023-01-03T19:47:13.946Z,8.05
2023-01-03T19:49:41.577Z,7.94
2023-01-03T19:52:08.220Z,8.01
2023-01-03T19:54:34.970Z,8.43
2023-01-03T19:57:04.569Z,8.45
2023-01-03T19:59:36.904Z,8.41
2023-01-03T20:02:26.551Z,8.22
2023-01-03T20:04:53.302Z,8.29
2023-01-03T20:07:20.058Z,8.27
2023-01-03T20:09:46.596Z,8.26
2023-01-03T20:12:17.736Z,7.86
2023-01-03T20:14:49.988Z,8.36
2023-01-03T20:17:21.994Z,8.11
2023-01-03T20:20:09.820Z,8.20
2023-01-03T20:25:28.302Z,8.06
2023-01-03T20:27:56.482Z,7.96
2023-01-03T20:30:24.995Z,8.09
2023-01-03T20:32:51.728Z,8.01
2023-01-03T20:38:07.214Z,8.16
2023-01-03T20:40:33.775Z,7.99
2023-01-03T20:43:24.274Z,8.14
2023-01-03T20:46:14.065Z,7.57
2023-01-03T20:48:40.698Z,7.79
2023-01-03T20:51:11.128Z,7.91
2023-01-03T20:53:42.681Z,8.00
2023-01-03T20:56:12.193Z,7.97
2023-01-03T20:58:39.234Z,7.96
2023-01-03T21:01:07.057Z,8.05
2023-01-03T21:03:38.191Z,8.03
2023-01-03T21:06:34.408Z,8.07
2023-01-03T21:09:01.150Z,8.07
2023-01-03T21:11:30.650Z,7.58
2023-01-03T21:13:59.343Z,7.80
2023-01-03T21:16:30.646Z,7.96
2023-01-03T21:19:12.532Z,8.03
2023-01-03T21:21:40.174Z,8.04
2023-01-03T21:24:07.611Z,8.08
2023-01-03T21:26:35.130Z,8.14
2023-01-03T21:29:08.547Z,8.17
2023-01-03T21:31:37.316Z,7.94
2023-01-03T21:34:06.109Z,8.32
2023-01-03T21:36:35.417Z,7.11
2023-01-03T21:39:04.342Z,8.28
2023-01-03T21:41:35.342Z,8.46
2023-01-03T21:44:03.525Z,7.91
2023-01-03T21:46:30.554Z,8.53
2023-01-03T21:48:58.037Z,8.24
2023-01-03T21:51:35.459Z,7.88
2023-01-03T21:54:06.779Z,8.41
2023-01-03T21:56:33.863Z,8.30
2023-01-03T21:59:00.528Z,8.30
2023-01-03T22:01:27.202Z,8.41
2023-01-03T22:04:12.607Z,8.34
2023-01-03T22:06:39.920Z,8.40
2023-01-03T22:09:26.507Z,8.52
2023-01-03T22:11:53.017Z,8.42
2023-01-03T22:14:19.569Z,8.55
2023-01-03T22:16:46.082Z,8.35
2023-01-03T22:19:12.738Z,8.60
2023-01-03T22:21:39.286Z,8.60
2023-01-03T22:24:06.352Z,8.60
2023-01-03T22:26:34.532Z,8.79
2023-01-03T22:29:01.214Z,8.56
2023-01-03T22:31:28.827Z,8.89
2023-01-03T22:33:55.428Z,8.79
2023-01-03T22:36:22.042Z,8.94
2023-01-03T22:38:48.550Z,8.88
2023-01-03T22:41:17.665Z,8.97
2023-01-03T22:43:48.161Z,9.01
2023-01-03T22:47:11.939Z,9.11
2023-01-03T22:49:41.168Z,9.11
2023-01-03T22:52:08.491Z,9.01
2023-01-03T22:54:39.151Z,9.20
2023-01-03T22:57:05.779Z,9.25
2023-01-03T22:59:32.468Z,8.73
2023-01-03T23:01:59.784Z,9.30
2023-01-03T23:04:27.743Z,9.23
2023-01-03T23:06:54.512Z,9.28
2023-01-03T23:09:22.279Z,8.86
2023-01-03T23:12:07.895Z,9.45
2023-01-03T23:14:34.576Z,9.38
2023-01-03T23:17:20.222Z,9.01
2023-01-03T23:19:46.815Z,9.30
2023-01-03T23:22:14.540Z,9.43
2023-01-03T23:24:41.102Z,9.52
2023-01-03T23:27:07.685Z,9.56
2023-01-03T23:29:34.461Z,9.52
2023-01-03T23:32:01.027Z,9.58
2023-01-03T23:34:27.605Z,9.50
2023-01-03T23:36:54.231Z,9.49
2023-01-03T23:39:20.715Z,9.50
2023-01-03T23:41:47.545Z,9.38
2023-01-03T23:44:14.411Z,9.23
2023-01-03T23:46:41.744Z,8.93
2023-01-03T23:49:10.312Z,9.44
2023-01-03T23:51:38.439Z,9.16
2023-01-03T23:54:04.968Z,9.38
2023-01-03T23:56:31.485Z,9.43
2023-01-03T23:58:58.136Z,9.29
